createdAt,value
2023-12-18T00:01:17.117Z,101795.88
2023-12-18T00:03:45.132Z,101790.09
2023-12-18T00:06:12.511Z,101783.25
2023-12-18T00:08:39.601Z,101780.03
2023-12-18T00:11:08.164Z,101783.97
2023-12-18T00:13:35.134Z,101772.75
2023-12-18T00:16:02.858Z,101763.22
2023-12-18T00:18:30.617Z,101755.63
2023-12-18T00:20:57.985Z,101758.06
2023-12-18T00:23:25.787Z,101757.34
2023-12-18T00:25:52.814Z,101757.13
2023-12-18T00:28:21.731Z,101755.69
2023-12-18T00:30:49.632Z,101760.50
2023-12-18T00:33:16.896Z,101756.66
2023-12-18T00:35:43.918Z,101767.34
2023-12-18T00:38:11.084Z,101758.25
2023-12-18T00:40:38.092Z,101754.25
2023-12-18T00:43:05.095Z,101750.50
2023-12-18T00:45:33.461Z,101755.50
2023-12-18T00:48:01.713Z,101757.22
2023-12-18T00:50:28.873Z,101753.56
2023-12-18T00:52:58.340Z,101752.38
2023-12-18T00:55:25.587Z,101750.38
2023-12-18T00:57:54.554Z,101741.78
2023-12-18T01:00:22.716Z,101738.66
2023-12-18T01:02:51.538Z,101736.22
2023-12-18T01:05:18.636Z,101746.25
2023-12-18T01:07:46.677Z,101741.19
2023-12-18T01:10:13.904Z,101748.00
2023-12-18T01:12:41.824Z,101741.16
2023-12-18T01:15:14.014Z,101737.28
2023-12-18T01:17:43.078Z,101735.03
2023-12-18T01:20:12.529Z,101741.34
2023-12-18T01:22:39.585Z,101746.00
2023-12-18T01:25:08.641Z,101744.22
2023-12-18T01:27:35.560Z,101733.56
2023-12-18T01:30:03.123Z,101739.22
2023-12-18T01:32:32.515Z,101735.47
2023-12-18T01:34:59.551Z,101737.47
2023-12-18T01:37:27.972Z,101729.94
2023-12-18T01:39:55.132Z,101738.25
2023-12-18T01:42:22.519Z,101739.47
2023-12-18T01:44:49.561Z,101733.59
2023-12-18T01:47:18.699Z,101732.28
2023-12-18T01:49:47.434Z,101727.25
2023-12-18T01:52:14.723Z,101721.69
2023-12-18T01:54:48.429Z,101723.91
2023-12-18T01:57:19.392Z,101720.13
2023-12-18T01:59:49.403Z,101713.97
2023-12-18T02:02:18.904Z,101718.44
2023-12-18T02:04:48.722Z,101721.91
2023-12-18T02:07:15.894Z,101717.44
2023-12-18T02:09:45.569Z,101720.00
2023-12-18T02:12:12.739Z,101710.25
2023-12-18T02:14:41.920Z,101712.69
2023-12-18T02:17:09.804Z,101721.22
2023-12-18T02:19:37.707Z,101711.31
2023-12-18T02:22:04.810Z,101702.09
2023-12-18T02:24:33.388Z,101701.97
2023-12-18T02:27:01.344Z,101698.78
2023-12-18T02:29:28.597Z,101683.00
2023-12-18T02:31:55.815Z,101682.19
2023-12-18T02:34:23.189Z,101687.06
2023-12-18T02:36:50.351Z,101691.53
2023-12-18T02:39:18.629Z,101688.97
2023-12-18T02:41:46.907Z,101697.22
2023-12-18T02:44:14.045Z,101699.38
2023-12-18T02:46:41.373Z,101703.00
2023-12-18T02:49:08.673Z,101702.91
2023-12-18T02:51:36.640Z,101698.19
2023-12-18T02:54:04.171Z,101689.22
2023-12-18T02:56:32.041Z,101694.94
2023-12-18T02:59:03.269Z,101687.28
2023-12-18T03:01:30.623Z,101692.00
2023-12-18T03:04:00.560Z,101691.00
2023-12-18T03:06:30.184Z,101685.00
2023-12-18T03:08:57.237Z,101697.59
2023-12-18T03:11:27.740Z,101687.16
2023-12-18T03:13:55.143Z,101695.41
2023-12-18T03:16:23.807Z,101690.56
2023-12-18T03:18:52.481Z,101687.28
2023-12-18T03:21:20.011Z,101691.25
2023-12-18T03:23:48.979Z,101693.19
2023-12-18T03:26:16.181Z,101701.81
2023-12-18T03:28:43.680Z,101693.94
2023-12-18T03:31:11.889Z,101700.47
2023-12-18T03:33:41.951Z,101698.03
2023-12-18T03:36:09.468Z,101699.06
2023-12-18T03:38:37.407Z,101699.81
2023-12-18T03:41:04.608Z,101701.06
2023-12-18T03:43:31.961Z,101699.16
2023-12-18T03:45:59.137Z,101691.47
2023-12-18T03:48:26.813Z,101702.69
2023-12-18T03:50:57.072Z,101701.59
2023-12-18T03:53:24.379Z,101702.56
2023-12-18T03:55:51.438Z,101697.22
2023-12-18T03:58:18.676Z,101698.81
2023-12-18T04:00:46.111Z,101692.38
2023-12-18T04:03:23.974Z,101687.28
2023-12-18T04:08:57.870Z,101686.88
2023-12-18T04:11:25.207Z,101676.72
2023-12-18T04:13:53.473Z,101673.00
2023-12-18T04:16:20.724Z,101668.34
2023-12-18T04:18:50.174Z,101678.66
2023-12-18T04:21:19.107Z,101665.00
2023-12-18T04:23:46.203Z,101669.38
2023-12-18T04:26:13.321Z,101662.56
2023-12-18T04:28:41.069Z,101668.50
2023-12-18T04:31:08.169Z,101667.44
2023-12-18T04:33:35.204Z,101669.03
2023-12-18T04:36:02.401Z,101670.59
2023-12-18T04:38:32.446Z,101670.59
2023-12-18T04:40:59.480Z,101670.50
2023-12-18T04:43:29.412Z,101676.28
2023-12-18T04:45:59.577Z,101671.69
2023-12-18T04:48:27.842Z,101661.75
2023-12-18T04:50:55.386Z,101663.47
2023-12-18T04:53:22.610Z,101664.06
2023-12-18T04:55:50.987Z,101657.03
2023-12-18T04:58:18.264Z,101665.69
2023-12-18T05:00:45.529Z,101659.25
2023-12-18T05:03:13.012Z,101664.47
2023-12-18T05:05:40.098Z,101675.25
2023-12-18T05:08:07.894Z,101678.16
2023-12-18T05:10:36.387Z,101676.72
2023-12-18T05:13:05.201Z,101672.25
2023-12-18T05:15:32.182Z,101668.50
2023-12-18T05:17:59.264Z,101673.38
2023-12-18T05:20:26.365Z,101676.28
2023-12-18T05:22:56.272Z,101674.81
2023-12-18T05:25:23.286Z,101668.22
2023-12-18T05:27:50.296Z,101667.63
2023-12-18T05:30:19.246Z,101676.38
2023-12-18T05:32:47.584Z,101688.31
2023-12-18T05:35:17.105Z,101686.72
2023-12-18T05:37:44.397Z,101687.25
2023-12-18T05:40:13.070Z,101689.50
2023-12-18T05:42:42.988Z,101699.78
2023-12-18T05:45:11.586Z,101693.41
2023-12-18T05:47:40.192Z,101691.34
2023-12-18T05:50:08.237Z,101694.94
2023-12-18T05:52:35.478Z,101685.34
2023-12-18T05:55:02.450Z,101687.34
2023-12-18T05:57:29.730Z,101696.91
2023-12-18T05:59:56.910Z,101696.69
2023-12-18T06:02:23.843Z,101694.56
2023-12-18T06:04:52.192Z,101692.34
2023-12-18T06:07:19.306Z,101692.34
2023-12-18T06:09:49.568Z,101688.72
2023-12-18T06:12:16.948Z,101696.06
2023-12-18T06:14:44.833Z,101692.13
2023-12-18T06:17:12.353Z,101699.03
2023-12-18T06:19:39.850Z,101703.94
2023-12-18T06:22:13.913Z,101712.81
2023-12-18T06:24:41.654Z,101699.28
2023-12-18T06:27:08.983Z,101700.03
2023-12-18T06:29:35.974Z,101711.00
2023-12-18T06:32:03.211Z,101709.66
2023-12-18T06:34:30.487Z,101706.00
2023-12-18T06:36:57.892Z,101711.88
2023-12-18T06:39:26.588Z,101709.94
2023-12-18T06:41:54.542Z,101697.34
2023-12-18T06:44:21.735Z,101713.34
2023-12-18T06:46:48.845Z,101715.78
2023-12-18T06:49:16.880Z,101715.34
2023-12-18T06:51:44.562Z,101712.47
2023-12-18T06:54:12.492Z,101697.25
2023-12-18T06:56:40.991Z,101704.06
2023-12-18T06:59:09.394Z,101706.66
2023-12-18T07:01:36.880Z,101705.31
2023-12-18T07:04:04.334Z,101712.44
2023-12-18T07:06:31.757Z,101714.03
2023-12-18T07:08:58.952Z,101717.00
2023-12-18T07:11:26.033Z,101707.81
2023-12-18T07:13:58.092Z,101717.00
2023-12-18T07:16:25.353Z,101730.69
2023-12-18T07:18:52.451Z,101735.16
2023-12-18T07:21:19.793Z,101735.22
2023-12-18T07:23:47.568Z,101732.13
2023-12-18T07:26:15.045Z,101726.38
2023-12-18T07:28:44.163Z,101738.31
2023-12-18T07:31:12.831Z,101733.47
2023-12-18T07:33:39.974Z,101727.88
2023-12-18T07:36:07.704Z,101725.78
2023-12-18T07:38:34.662Z,101725.88
2023-12-18T07:41:04.139Z,101734.16
2023-12-18T07:43:31.722Z,101736.78
2023-12-18T07:45:58.657Z,101726.28
2023-12-18T07:48:27.454Z,101736.94
2023-12-18T07:50:54.655Z,101740.47
2023-12-18T07:53:21.764Z,101743.84
2023-12-18T07:55:49.477Z,101738.53
2023-12-18T07:58:18.342Z,101741.13
2023-12-18T08:00:46.853Z,101745.88
2023-12-18T08:03:14.233Z,101732.88
2023-12-18T08:05:43.216Z,101747.41
2023-12-18T08:08:13.139Z,101736.47
2023-12-18T08:10:40.484Z,101738.63
2023-12-18T08:13:08.172Z,101742.31
2023-12-18T08:15:36.494Z,101735.63
2023-12-18T08:18:04.285Z,101734.72
2023-12-18T08:20:31.267Z,101732.28
2023-12-18T08:22:59.772Z,101737.38
2023-12-18T08:25:26.758Z,101724.13
2023-12-18T08:27:54.752Z,101724.09
2023-12-18T08:30:21.772Z,101723.25
2023-12-18T08:32:48.861Z,101729.91
2023-12-18T08:35:15.804Z,101727.38
2023-12-18T08:37:42.965Z,101732.69
2023-12-18T08:40:12.892Z,101743.00
2023-12-18T08:42:40.867Z,101730.78
2023-12-18T08:45:09.975Z,101721.69
2023-12-18T08:47:37.024Z,101722.97
2023-12-18T08:50:05.082Z,101719.19
2023-12-18T08:52:32.363Z,101723.31
2023-12-18T08:54:59.492Z,101724.56
2023-12-18T08:57:29.063Z,101719.22
2023-12-18T08:59:56.038Z,101719.50
2023-12-18T09:02:23.125Z,101725.41
2023-12-18T09:04:50.362Z,101715.94
2023-12-18T09:07:17.354Z,101715.94
2023-12-18T09:09:44.405Z,101710.47
2023-12-18T09:12:11.439Z,101715.28
2023-12-18T09:14:39.836Z,101718.69
2023-12-18T09:17:06.752Z,101715.66
2023-12-18T09:19:33.857Z,101718.50
2023-12-18T09:22:02.972Z,101713.34
2023-12-18T09:24:31.835Z,101715.84
2023-12-18T09:26:58.980Z,101709.13
2023-12-18T09:29:25.950Z,101712.00
2023-12-18T09:31:54.733Z,101711.91
2023-12-18T09:34:23.165Z,101706.91
2023-12-18T09:36:50.410Z,101697.25
2023-12-18T09:39:17.376Z,101693.81
2023-12-18T09:41:44.771Z,101683.66
2023-12-18T09:44:11.979Z,101681.56
2023-12-18T09:46:39.985Z,101673.53
2023-12-18T09:49:08.435Z,101660.38
2023-12-18T09:51:41.517Z,101669.00
2023-12-18T09:54:10.459Z,101677.53
2023-12-18T09:56:39.113Z,101692.22
2023-12-18T09:59:08.721Z,101718.50
2023-12-18T10:01:36.226Z,101719.47
2023-12-18T10:04:04.732Z,101742.03
2023-12-18T10:06:33.235Z,101722.72
2023-12-18T10:09:02.546Z,101747.41
2023-12-18T10:11:30.198Z,101763.50
2023-12-18T10:13:57.625Z,101742.59
2023-12-18T10:16:24.638Z,101783.28
2023-12-18T10:18:53.364Z,101753.06
2023-12-18T10:21:22.761Z,101790.66
2023-12-18T10:23:52.947Z,101784.91
2023-12-18T10:26:19.989Z,101763.41
2023-12-18T10:28:47.410Z,101778.84
2023-12-18T10:31:15.035Z,101782.34
2023-12-18T10:33:43.493Z,101764.91
2023-12-18T10:36:10.903Z,101774.13
2023-12-18T10:38:42.907Z,101778.47
2023-12-18T10:41:14.362Z,101780.44
2023-12-18T10:43:44.343Z,101761.66
2023-12-18T10:46:13.875Z,101719.94
2023-12-18T10:48:43.594Z,101708.78
2023-12-18T10:51:11.348Z,101714.25
2023-12-18T10:53:40.738Z,101739.06
2023-12-18T10:56:09.648Z,101749.38
2023-12-18T10:58:41.550Z,101735.69
2023-12-18T11:01:11.063Z,101722.16
2023-12-18T11:03:38.839Z,101710.38
2023-12-18T11:06:09.070Z,101730.22
2023-12-18T11:08:36.628Z,101701.25
2023-12-18T11:11:06.678Z,101672.22
2023-12-18T11:14:01.927Z,101686.41
2023-12-18T11:16:44.797Z,101716.84
2023-12-18T11:19:30.707Z,101695.63
2023-12-18T11:22:00.753Z,101694.75
2023-12-18T11:24:35.949Z,101703.19
2023-12-18T11:27:03.567Z,101709.63
2023-12-18T11:29:44.245Z,101713.66
2023-12-18T11:32:34.912Z,101717.03
2023-12-18T11:35:03.330Z,101682.19
2023-12-18T11:37:40.624Z,101667.47
2023-12-18T11:40:39.997Z,101662.38
2023-12-18T11:43:08.818Z,101656.75
2023-12-18T11:45:41.258Z,101666.16
2023-12-18T11:48:10.164Z,101669.25
2023-12-18T11:50:39.789Z,101671.47
2023-12-18T11:53:08.334Z,101675.09
2023-12-18T11:55:48.702Z,101659.44
2023-12-18T11:58:21.074Z,101633.72
2023-12-18T12:00:51.888Z,101626.97
2023-12-18T12:03:22.522Z,101632.84
2023-12-18T12:05:51.597Z,101621.53
2023-12-18T12:08:19.089Z,101615.53
2023-12-18T12:10:49.473Z,101624.00
2023-12-18T12:13:21.911Z,101606.50
2023-12-18T12:16:00.848Z,101592.03
2023-12-18T12:18:30.962Z,101606.91
2023-12-18T12:20:58.996Z,101591.81
2023-12-18T12:23:27.065Z,101603.94
2023-12-18T12:25:59.934Z,101588.44
2023-12-18T12:28:29.541Z,101555.28
2023-12-18T12:30:58.388Z,101535.91
2023-12-18T12:33:26.214Z,101555.84
2023-12-18T12:35:53.991Z,101573.94
2023-12-18T12:38:21.009Z,101590.22
2023-12-18T12:40:48.145Z,101580.69
2023-12-18T12:43:16.484Z,101579.63
2023-12-18T12:45:47.497Z,101566.94
2023-12-18T12:48:18.705Z,101565.13
2023-12-18T12:50:47.866Z,101553.97
2023-12-18T12:53:17.661Z,101533.16
2023-12-18T12:55:52.516Z,101510.06
2023-12-18T12:58:23.799Z,101516.19
2023-12-18T13:00:53.540Z,101521.38
2023-12-18T13:03:22.686Z,101505.44
2023-12-18T13:05:50.707Z,101508.53
2023-12-18T13:08:17.776Z,101487.16
2023-12-18T13:10:45.171Z,101487.72
2023-12-18T13:13:12.145Z,101466.84
2023-12-18T13:15:39.678Z,101467.28
2023-12-18T13:18:08.259Z,101470.94
2023-12-18T13:20:36.900Z,101429.03
2023-12-18T13:23:04.534Z,101399.25
2023-12-18T13:25:31.993Z,101380.38
2023-12-18T13:27:59.119Z,101412.66
2023-12-18T13:30:26.263Z,101394.03
2023-12-18T13:32:53.566Z,101377.69
2023-12-18T13:35:21.142Z,101394.47
2023-12-18T13:37:49.853Z,101400.75
2023-12-18T13:40:17.533Z,101439.78
2023-12-18T13:42:44.571Z,101422.69
2023-12-18T13:45:12.468Z,101432.78
2023-12-18T13:47:41.094Z,101434.91
2023-12-18T13:50:09.684Z,101449.38
2023-12-18T13:52:37.145Z,101439.09
2023-12-18T13:55:06.793Z,101413.28
2023-12-18T13:57:39.487Z,101428.75
2023-12-18T14:00:14.277Z,101433.22
2023-12-18T14:02:41.365Z,101413.50
2023-12-18T14:05:09.789Z,101392.88
2023-12-18T14:07:37.080Z,101386.53
2023-12-18T14:10:06.184Z,101407.34
2023-12-18T14:12:35.662Z,101388.47
2023-12-18T14:15:05.855Z,101355.72
2023-12-18T14:17:32.854Z,101361.63
2023-12-18T14:20:02.071Z,101370.53
2023-12-18T14:22:29.127Z,101364.59
2023-12-18T14:24:56.211Z,101375.41
2023-12-18T14:27:24.881Z,101351.94
2023-12-18T14:29:54.727Z,101369.34
2023-12-18T14:32:21.717Z,101365.94
2023-12-18T14:34:51.231Z,101348.91
2023-12-18T14:37:20.286Z,101340.41
2023-12-18T14:39:47.713Z,101343.50
2023-12-18T14:42:14.874Z,101349.00
2023-12-18T14:44:43.677Z,101337.50
2023-12-18T14:47:11.385Z,101344.75
2023-12-18T14:49:38.460Z,101342.91
2023-12-18T14:52:07.765Z,101337.75
2023-12-18T14:54:35.675Z,101341.47
2023-12-18T14:57:02.729Z,101334.25
2023-12-18T14:59:32.771Z,101337.75
2023-12-18T15:02:01.451Z,101339.94
2023-12-18T15:04:30.518Z,101339.59
2023-12-18T15:06:59.239Z,101331.16
2023-12-18T15:09:27.018Z,101328.13
2023-12-18T15:11:54.158Z,101325.44
2023-12-18T15:14:21.134Z,101319.22
2023-12-18T15:16:48.448Z,101320.38
2023-12-18T15:19:17.780Z,101316.84
2023-12-18T15:21:45.166Z,101310.97
2023-12-18T15:24:12.342Z,101307.06
2023-12-18T15:26:41.462Z,101310.88
2023-12-18T15:29:08.535Z,101313.41
2023-12-18T15:31:36.322Z,101311.91
2023-12-18T15:34:06.078Z,101314.94
2023-12-18T15:36:37.781Z,101316.44
2023-12-18T15:39:05.532Z,101316.09
2023-12-18T15:41:32.698Z,101315.41
2023-12-18T15:44:00.020Z,101311.31
2023-12-18T15:46:27.084Z,101313.53
2023-12-18T15:48:54.478Z,101305.78
2023-12-18T15:51:21.802Z,101304.25
2023-12-18T15:53:50.452Z,101312.50
2023-12-18T15:56:17.693Z,101313.31
2023-12-18T15:58:44.949Z,101314.13
2023-12-18T16:01:13.352Z,101324.09
2023-12-18T16:03:43.014Z,101316.13
2023-12-18T16:06:11.687Z,101315.44
2023-12-18T16:08:40.470Z,101321.34
2023-12-18T16:11:09.018Z,101319.16
2023-12-18T16:13:37.056Z,101319.09
2023-12-18T16:16:05.241Z,101317.22
2023-12-18T16:18:33.369Z,101307.56
2023-12-18T16:21:01.543Z,101302.75
2023-12-18T16:23:28.377Z,101301.25
2023-12-18T16:25:56.783Z,101307.69
2023-12-18T16:28:25.379Z,101304.31
2023-12-18T16:30:56.803Z,101302.53
2023-12-18T16:33:25.448Z,101296.59
2023-12-18T16:35:53.281Z,101289.94
2023-12-18T16:38:21.771Z,101303.91
2023-12-18T16:40:52.804Z,101296.69
2023-12-18T16:43:20.534Z,101302.59
2023-12-18T16:45:53.420Z,101302.22
2023-12-18T16:48:20.841Z,101308.63
2023-12-18T16:50:47.828Z,101316.34
2023-12-18T16:53:15.050Z,101308.75
2023-12-18T16:55:43.278Z,101306.78
2023-12-18T16:58:11.054Z,101299.75
2023-12-18T17:00:38.274Z,101292.13
2023-12-18T17:03:07.717Z,101296.28
2023-12-18T17:05:34.767Z,101303.59
2023-12-18T17:08:02.332Z,101295.75
2023-12-18T17:10:29.592Z,101296.84
2023-12-18T17:12:56.518Z,101292.16
2023-12-18T17:15:24.067Z,101296.00
2023-12-18T17:17:51.111Z,101298.81
2023-12-18T17:20:22.139Z,101290.34
2023-12-18T17:22:50.353Z,101288.81
2023-12-18T17:25:18.841Z,101294.59
2023-12-18T17:27:45.837Z,101297.13
2023-12-18T17:30:13.571Z,101297.53
2023-12-18T17:32:40.682Z,101292.75
2023-12-18T17:35:09.067Z,101292.63
2023-12-18T17:37:40.082Z,101288.94
2023-12-18T17:40:09.286Z,101299.38
2023-12-18T17:42:36.447Z,101290.72
2023-12-18T17:45:05.078Z,101290.63
2023-12-18T17:47:34.406Z,101283.69
2023-12-18T17:50:02.028Z,101285.13
2023-12-18T17:52:29.422Z,101283.47
2023-12-18T17:54:57.790Z,101279.63
2023-12-18T17:57:24.932Z,101280.22
2023-12-18T17:59:53.653Z,101282.75
2023-12-18T18:02:21.634Z,101285.66
2023-12-18T18:04:49.545Z,101281.38
2023-12-18T18:07:16.855Z,101285.81
2023-12-18T18:09:43.853Z,101285.34
2023-12-18T18:12:12.970Z,101274.63
2023-12-18T18:14:40.550Z,101270.09
2023-12-18T18:17:07.630Z,101271.69
2023-12-18T18:19:34.903Z,101274.09
2023-12-18T18:22:01.793Z,101267.03
2023-12-18T18:24:28.836Z,101263.59
2023-12-18T18:27:08.460Z,101267.91
2023-12-18T18:29:39.609Z,101272.00
2023-12-18T18:32:07.776Z,101265.38
2023-12-18T18:34:35.388Z,101273.63
2023-12-18T18:37:02.926Z,101274.38
2023-12-18T18:39:29.948Z,101288.69
2023-12-18T18:41:56.912Z,101291.72
2023-12-18T18:44:23.873Z,101296.00
2023-12-18T18:46:53.285Z,101293.22
2023-12-18T18:49:20.430Z,101296.97
2023-12-18T18:51:47.440Z,101301.06
2023-12-18T18:54:14.516Z,101304.06
2023-12-18T18:56:41.458Z,101288.03
2023-12-18T18:59:08.599Z,101277.75
2023-12-18T19:01:35.918Z,101290.47
2023-12-18T19:04:05.168Z,101294.66
2023-12-18T19:06:32.528Z,101294.69
2023-12-18T19:08:59.963Z,101292.22
2023-12-18T19:11:28.381Z,101284.78
2023-12-18T19:13:55.464Z,101293.97
2023-12-18T19:16:23.155Z,101290.75
2023-12-18T19:18:50.161Z,101298.25
2023-12-18T19:21:19.536Z,101314.25
2023-12-18T19:23:46.523Z,101306.97
2023-12-18T19:26:13.454Z,101293.22
2023-12-18T19:28:40.323Z,101291.69
2023-12-18T19:31:07.307Z,101288.22
2023-12-18T19:33:34.498Z,101275.41
2023-12-18T19:36:01.642Z,101275.03
2023-12-18T19:38:32.727Z,101279.41
2023-12-18T19:40:59.779Z,101281.97
2023-12-18T19:43:27.102Z,101281.94
2023-12-18T19:45:54.315Z,101285.06
2023-12-18T19:48:21.829Z,101282.00
2023-12-18T19:50:48.765Z,101274.41
2023-12-18T19:53:16.104Z,101279.16
2023-12-18T19:55:44.982Z,101281.81
2023-12-18T19:58:17.655Z,101265.00
2023-12-18T20:00:45.773Z,101255.25
2023-12-18T20:03:13.342Z,101253.44
2023-12-18T20:05:44.577Z,101256.34
2023-12-18T20:08:14.609Z,101263.03
2023-12-18T20:10:46.837Z,101259.06
2023-12-18T20:13:14.091Z,101255.41
2023-12-18T20:15:41.570Z,101249.56
2023-12-18T20:18:08.642Z,101250.66
2023-12-18T20:20:35.732Z,101246.25
2023-12-18T20:23:08.164Z,101255.00
2023-12-18T20:25:35.388Z,101248.69
2023-12-18T20:28:04.555Z,101242.38
2023-12-18T20:30:31.747Z,101237.06
2023-12-18T20:32:59.187Z,101238.28
2023-12-18T20:35:26.185Z,101235.91
2023-12-18T20:37:53.085Z,101238.03
2023-12-18T20:40:20.488Z,101232.78
2023-12-18T20:42:49.035Z,101221.59
2023-12-18T20:45:20.270Z,101229.44
2023-12-18T20:47:48.653Z,101222.19
2023-12-18T20:50:16.531Z,101219.69
2023-12-18T20:52:43.872Z,101205.25
2023-12-18T20:55:11.059Z,101217.00
2023-12-18T20:57:40.097Z,101214.88
2023-12-18T21:00:22.597Z,101209.25
2023-12-18T21:02:53.793Z,101204.69
2023-12-18T21:05:21.574Z,101194.66
2023-12-18T21:07:48.609Z,101199.59
2023-12-18T21:10:15.879Z,101218.06
2023-12-18T21:12:43.488Z,101222.38
2023-12-18T21:15:11.788Z,101227.56
2023-12-18T21:17:38.810Z,101228.28
2023-12-18T21:20:10.857Z,101219.03
2023-12-18T21:22:38.218Z,101235.03
2023-12-18T21:25:06.405Z,101235.88
2023-12-18T21:27:33.611Z,101238.53
2023-12-18T21:30:01.092Z,101238.28
2023-12-18T21:32:28.911Z,101240.03
2023-12-18T21:34:55.957Z,101236.94
2023-12-18T21:37:24.356Z,101229.75
2023-12-18T21:39:51.439Z,101233.31
2023-12-18T21:42:18.493Z,101233.06
2023-12-18T21:44:46.744Z,101236.72
2023-12-18T21:47:13.955Z,101246.34
2023-12-18T21:49:40.998Z,101245.09
2023-12-18T21:52:07.975Z,101245.78
2023-12-18T21:54:36.296Z,101255.00
2023-12-18T21:57:03.894Z,101237.50
2023-12-18T21:59:31.153Z,101227.22
2023-12-18T22:01:59.084Z,101223.38
2023-12-18T22:04:26.165Z,101218.44
2023-12-18T22:06:53.309Z,101203.56
2023-12-18T22:09:20.409Z,101192.31
2023-12-18T22:11:48.860Z,101178.44
2023-12-18T22:14:15.933Z,101192.56
2023-12-18T22:16:43.035Z,101179.97
2023-12-18T22:19:10.700Z,101182.13
2023-12-18T22:21:37.817Z,101176.06
2023-12-18T22:24:06.211Z,101171.25
2023-12-18T22:26:33.296Z,101166.84
2023-12-18T22:29:02.248Z,101161.44
2023-12-18T22:31:31.098Z,101155.97
2023-12-18T22:33:59.083Z,101149.91
2023-12-18T22:36:26.232Z,101145.44
2023-12-18T22:38:58.991Z,101129.03
2023-12-18T22:41:26.564Z,101127.25
2023-12-18T22:43:53.484Z,101119.06
2023-12-18T22:46:24.727Z,101110.81
2023-12-18T22:48:51.717Z,101122.78
2023-12-18T22:51:18.863Z,101110.03
2023-12-18T22:53:48.047Z,101108.41
2023-12-18T22:56:15.072Z,101114.44
2023-12-18T22:58:41.972Z,101109.22
2023-12-18T23:01:09.333Z,101108.78
2023-12-18T23:03:37.654Z,101120.09
2023-12-18T23:06:05.395Z,101116.16
2023-12-18T23:08:32.461Z,101116.00
2023-12-18T23:11:00.024Z,101127.63
2023-12-18T23:13:26.962Z,101128.09
2023-12-18T23:15:54.260Z,101123.44
2023-12-18T23:18:22.745Z,101114.41
2023-12-18T23:20:51.111Z,101120.81
2023-12-18T23:23:18.564Z,101134.94
2023-12-18T23:25:45.790Z,101135.97
2023-12-18T23:28:13.084Z,101132.28
2023-12-18T23:30:40.231Z,101122.75
2023-12-18T23:33:13.076Z,101119.66
2023-12-18T23:35:45.017Z,101119.13
2023-12-18T23:38:13.461Z,101101.19
2023-12-18T23:40:41.030Z,101091.13
2023-12-18T23:43:09.004Z,101081.19
2023-12-18T23:45:35.951Z,101084.72
2023-12-18T23:48:03.267Z,101088.44
2023-12-18T23:50:30.550Z,101091.31
2023-12-18T23:52:58.382Z,101084.06
2023-12-18T23:55:26.796Z,101083.22
2023-12-18T23:57:53.915Z,101102.66
